Aérodrome :
LOGIN :

S'inscrire | Disclaimer

   EN    FR    IT 

 










Légende :    VFR   VFR Marginal   IFR   IFR Intensif   IFR Très Intensif
Visi : 
Plafond : 
>= 8 km
>= 3000ft
5 à 8 km
1000 à 3000 ft
1500m à 5 km
500 à 1000 ft
800 à 1500m
200 à 500 ft
< 800m
< 200 ft
Symboles :   Orages  Brouillard  Fortes neiges  Fortes précipitations  Vent > 20 kt
SIGMETs :   Divers  Orages  Givrage  Turbulence  Onde Orograph.  Cendres Volcan.






- Altitude de l'aérodrome : -13 ft
- Code IATA : LEY


EHLE - Lelystad

DERNIER METAR :
  • 171855Z AUTO 23019G30KT 210V270 9999 SCT028 OVC031 07/04 Q1013 NOSIG

METARs EXPIRÉS :
  • 171825Z AUTO 24017KT 9999 FEW021 BKN030 BKN034 08/05 Q1013 NOSIG
  • 171755Z AUTO 23018KT 9999 FEW020 SCT024 BKN041 08/06 Q1013 NOSIG
  • 171725Z AUTO 22014KT 9999 FEW031 09/06 Q1013 NOSIG
  • 171655Z AUTO 21010KT 170V240 9999 FEW024 BKN043 09/07 Q1012 NOSIG
  • 171625Z AUTO 21009KT 9999 FEW032 SCT038 BKN042 09/08 Q1012 NOSIG

TAF TAF EHLE
Valide du 17 à 18h jusqu'au 19 à 00h UTC


171717Z 1718/1824 23019KT 9999 SCT020
PROB30
TEMPO 1718/1723 7000 -RA -SHRA BKN012 FEW018TCU
BECMG 1719/1722 27020G30KT
BECMG 1722/1801 25012KT
PROB30
TEMPO 1806/1818 29015G25KT 6000 SHRA SCT018CB BKN020
BECMG 1807/1810 29012KT



MET'MAP, la Météo Aéronautique d'un coup d'oeil ! - Copyright ORBIFLY Décembre 2007 - Disclaimer

ORBIFLY MET'MAP TEAM :

Programmation & Développement : Alexandra Zaïnal
Sur une idée originale de : Baudouin d'Aumeries
Assistance à la programmation : Marc-Olivier Méhu
Soutien technique & logistique : Manuel Goepfert

Contact : metmap@orbifly.com




SOURCES & CREDITS :

   NOAA